createdAt,value
2023-02-13T00:01:14.175Z,101656.69
2023-02-13T00:03:16.372Z,101654.16
2023-02-13T00:05:18.680Z,101646.28
2023-02-13T00:07:21.041Z,101644.56
2023-02-13T00:09:23.063Z,101637.44
2023-02-13T00:11:25.150Z,101632.28
2023-02-13T00:13:27.302Z,101634.31
2023-02-13T00:15:29.386Z,101638.88
2023-02-13T00:17:32.449Z,101632.53
2023-02-13T00:19:34.432Z,101643.31
2023-02-13T00:21:36.486Z,101654.75
2023-02-13T00:23:39.954Z,101649.44
2023-02-13T00:25:42.103Z,101655.63
2023-02-13T00:27:44.297Z,101652.28
2023-02-13T00:29:46.456Z,101653.16
2023-02-13T00:31:48.683Z,101652.88
2023-02-13T00:33:51.203Z,101658.28
2023-02-13T00:36:04.749Z,101661.41
2023-02-13T00:38:06.690Z,101668.59
2023-02-13T00:40:09.322Z,101651.03
2023-02-13T00:42:11.975Z,101661.44
2023-02-13T00:44:13.992Z,101671.25
2023-02-13T00:46:17.703Z,101670.31
2023-02-13T00:48:19.962Z,101649.06
2023-02-13T00:50:21.934Z,101655.72
2023-02-13T00:52:23.952Z,101649.69
2023-02-13T00:54:25.920Z,101647.03
2023-02-13T00:56:28.428Z,101650.53
2023-02-13T00:58:33.453Z,101647.69
2023-02-13T01:00:35.754Z,101652.03
2023-02-13T01:02:37.703Z,101643.25
2023-02-13T01:04:39.808Z,101643.94
2023-02-13T01:06:41.936Z,101644.75
2023-02-13T01:08:44.023Z,101647.41
2023-02-13T01:10:47.623Z,101645.56
2023-02-13T01:12:49.646Z,101656.16
2023-02-13T01:14:52.634Z,101638.78
2023-02-13T01:16:55.280Z,101638.84
2023-02-13T01:18:57.397Z,101639.66
2023-02-13T01:21:06.210Z,101632.50
2023-02-13T01:23:10.235Z,101631.53
2023-02-13T01:25:12.243Z,101636.69
2023-02-13T01:27:14.751Z,101631.69
2023-02-13T01:29:17.855Z,101641.44
2023-02-13T01:31:20.205Z,101640.34
2023-02-13T01:33:27.864Z,101645.56
2023-02-13T01:35:29.772Z,101651.81
2023-02-13T01:37:32.078Z,101650.03
2023-02-13T01:39:36.099Z,101647.22
2023-02-13T01:41:38.826Z,101641.06
2023-02-13T01:44:26.874Z,101641.63
2023-02-13T01:46:43.447Z,101638.97
2023-02-13T01:48:46.908Z,101642.81
2023-02-13T01:51:06.063Z,101641.59
2023-02-13T01:53:38.324Z,101633.44
2023-02-13T01:56:18.352Z,101642.25
2023-02-13T01:58:25.112Z,101651.91
2023-02-13T02:00:30.455Z,101645.91
2023-02-13T02:02:37.558Z,101648.41
2023-02-13T02:04:42.288Z,101655.50
2023-02-13T02:06:58.170Z,101653.84
2023-02-13T02:09:11.116Z,101647.72
2023-02-13T02:11:22.921Z,101654.63
2023-02-13T02:13:29.773Z,101646.75
2023-02-13T02:15:38.975Z,101647.59
2023-02-13T02:17:41.633Z,101649.41
2023-02-13T02:20:04.118Z,101663.25
2023-02-13T02:22:38.215Z,101657.94
2023-02-13T02:25:14.166Z,101656.00
2023-02-13T02:27:37.861Z,101662.78
2023-02-13T02:30:01.838Z,101662.59
2023-02-13T02:32:11.639Z,101670.13
2023-02-13T02:34:31.931Z,101678.59
2023-02-13T02:36:43.334Z,101676.00
2023-02-13T02:39:02.223Z,101679.47
2023-02-13T02:41:51.944Z,101679.47
2023-02-13T02:44:08.589Z,101673.91
2023-02-13T02:46:32.585Z,101675.28
2023-02-13T02:49:25.306Z,101690.25
2023-02-13T02:51:30.234Z,101684.72
2023-02-13T02:53:47.264Z,101682.59
2023-02-13T02:56:07.677Z,101676.19
2023-02-13T02:58:32.797Z,101688.50
2023-02-13T03:01:01.681Z,101684.56
2023-02-13T03:03:28.409Z,101684.56
2023-02-13T03:05:53.008Z,101691.97
2023-02-13T03:07:55.060Z,101691.72
2023-02-13T03:10:20.947Z,101695.16
2023-02-13T03:12:45.642Z,101691.88
2023-02-13T03:14:47.892Z,101689.06
2023-02-13T03:17:09.806Z,101695.38
2023-02-13T03:19:47.357Z,101701.38
2023-02-13T03:22:18.510Z,101695.06
2023-02-13T03:24:32.048Z,101693.53
2023-02-13T03:26:52.142Z,101694.44
2023-02-13T03:29:27.238Z,101702.19
2023-02-13T03:31:50.858Z,101702.13
2023-02-13T03:34:24.826Z,101704.59
2023-02-13T03:36:59.257Z,101697.44
2023-02-13T03:39:17.258Z,101697.31
2023-02-13T03:41:27.768Z,101686.75
2023-02-13T03:43:37.005Z,101688.50
2023-02-13T03:45:57.487Z,101691.25
2023-02-13T03:48:10.031Z,101689.47
2023-02-13T03:50:14.150Z,101691.47
2023-02-13T03:52:27.446Z,101683.53
2023-02-13T03:55:05.730Z,101685.69
2023-02-13T03:57:27.353Z,101687.91
2023-02-13T03:59:34.112Z,101685.22
2023-02-13T04:01:37.778Z,101691.63
2023-02-13T04:03:57.825Z,101687.88
2023-02-13T04:06:27.912Z,101684.81
2023-02-13T04:08:30.400Z,101679.16
2023-02-13T04:10:35.986Z,101687.09
2023-02-13T04:12:47.805Z,101688.88
2023-02-13T04:15:03.408Z,101688.16
2023-02-13T04:17:12.128Z,101681.56
2023-02-13T04:19:15.405Z,101687.66
2023-02-13T04:21:17.484Z,101683.41
2023-02-13T04:23:19.950Z,101681.47
2023-02-13T04:25:22.606Z,101677.06
2023-02-13T04:27:26.993Z,101683.22
2023-02-13T04:29:29.146Z,101684.06
2023-02-13T04:31:31.562Z,101682.50
2023-02-13T04:33:33.792Z,101681.56
2023-02-13T04:35:35.931Z,101688.59
2023-02-13T04:37:38.128Z,101692.31
2023-02-13T04:39:40.081Z,101694.00
2023-02-13T04:41:42.634Z,101699.03
2023-02-13T04:43:45.502Z,101699.44
2023-02-13T04:45:51.240Z,101704.59
2023-02-13T04:47:55.137Z,101714.53
2023-02-13T04:49:57.250Z,101712.81
2023-02-13T04:51:59.228Z,101705.72
2023-02-13T04:54:01.235Z,101705.78
2023-02-13T04:56:03.360Z,101708.16
2023-02-13T04:58:08.323Z,101712.31
2023-02-13T05:00:11.136Z,101705.19
2023-02-13T05:02:13.479Z,101714.19
2023-02-13T05:04:16.510Z,101717.81
2023-02-13T05:06:18.642Z,101712.53
2023-02-13T05:08:20.748Z,101717.16
2023-02-13T05:10:23.222Z,101715.94
2023-02-13T05:12:25.288Z,101713.50
2023-02-13T05:14:27.834Z,101714.13
2023-02-13T05:16:29.973Z,101719.38
2023-02-13T05:18:32.625Z,101714.25
2023-02-13T05:20:34.693Z,101714.97
2023-02-13T05:22:55.344Z,101713.47
2023-02-13T05:24:57.406Z,101721.06
2023-02-13T05:26:59.435Z,101724.03
2023-02-13T05:29:23.070Z,101717.72
2023-02-13T05:31:25.322Z,101723.97
2023-02-13T05:33:27.838Z,101717.63
2023-02-13T05:35:29.930Z,101726.44
2023-02-13T05:37:32.384Z,101724.28
2023-02-13T05:39:34.532Z,101724.38
2023-02-13T05:41:36.539Z,101729.50
2023-02-13T05:43:38.617Z,101735.88
2023-02-13T05:45:40.809Z,101734.09
2023-02-13T05:47:43.366Z,101737.50
2023-02-13T05:49:45.464Z,101746.06
2023-02-13T05:51:47.857Z,101748.53
2023-02-13T05:53:50.193Z,101745.00
2023-02-13T05:55:52.686Z,101743.97
2023-02-13T05:58:00.805Z,101744.03
2023-02-13T06:00:04.785Z,101741.31
2023-02-13T06:02:07.606Z,101740.53
2023-02-13T06:04:09.904Z,101730.59
2023-02-13T06:06:12.100Z,101732.19
2023-02-13T06:08:14.208Z,101729.81
2023-02-13T06:10:16.559Z,101736.78
2023-02-13T06:12:18.628Z,101730.69
2023-02-13T06:14:20.724Z,101733.38
2023-02-13T06:16:23.390Z,101735.31
2023-02-13T06:18:27.074Z,101732.16
2023-02-13T06:20:29.450Z,101734.09
2023-02-13T06:22:31.458Z,101738.63
2023-02-13T06:24:33.890Z,101736.16
2023-02-13T06:26:35.962Z,101748.66
2023-02-13T06:28:38.093Z,101744.53
2023-02-13T06:30:40.303Z,101739.13
2023-02-13T06:32:42.696Z,101732.88
2023-02-13T06:34:44.714Z,101731.91
2023-02-13T06:36:47.310Z,101737.69
2023-02-13T06:38:49.289Z,101735.19
2023-02-13T06:40:51.514Z,101737.13
2023-02-13T06:42:54.121Z,101735.38
2023-02-13T06:44:56.337Z,101736.50
2023-02-13T06:47:01.583Z,101737.31
2023-02-13T06:49:04.039Z,101727.69
2023-02-13T06:51:08.872Z,101721.84
2023-02-13T06:53:12.134Z,101726.50
2023-02-13T06:55:14.994Z,101735.75
2023-02-13T06:57:17.630Z,101731.59
2023-02-13T06:59:19.718Z,101736.25
2023-02-13T07:01:21.904Z,101728.56
2023-02-13T07:03:24.400Z,101745.28
2023-02-13T07:05:26.292Z,101735.63
2023-02-13T07:07:28.340Z,101733.59
2023-02-13T07:09:31.715Z,101736.56
2023-02-13T07:11:34.276Z,101731.66
2023-02-13T07:13:36.281Z,101726.81
2023-02-13T07:15:38.790Z,101729.75
2023-02-13T07:17:40.654Z,101717.84
2023-02-13T07:19:42.676Z,101724.34
2023-02-13T07:21:44.546Z,101729.09
2023-02-13T07:23:46.595Z,101726.75
2023-02-13T07:25:48.649Z,101719.22
2023-02-13T07:27:50.897Z,101730.81
2023-02-13T07:29:52.868Z,101738.78
2023-02-13T07:31:55.049Z,101734.50
2023-02-13T07:34:00.411Z,101729.09
2023-02-13T07:36:05.887Z,101729.09
2023-02-13T07:38:08.044Z,101723.78
2023-02-13T07:40:13.923Z,101724.59
2023-02-13T07:42:16.133Z,101731.63
2023-02-13T07:44:18.190Z,101728.97
2023-02-13T07:46:20.717Z,101722.97
2023-02-13T07:48:24.126Z,101731.94
2023-02-13T07:50:26.690Z,101727.84
2023-02-13T07:52:28.762Z,101721.13
2023-02-13T07:54:31.354Z,101732.78
2023-02-13T07:56:33.792Z,101727.72
2023-02-13T07:58:37.489Z,101726.94
2023-02-13T08:00:41.670Z,101727.81
2023-02-13T08:02:44.604Z,101734.38
2023-02-13T08:04:46.742Z,101735.56
2023-02-13T08:06:48.802Z,101731.56
2023-02-13T08:09:10.855Z,101729.31
2023-02-13T08:11:50.171Z,101729.69
2023-02-13T08:13:52.615Z,101726.50
2023-02-13T08:15:55.041Z,101733.03
2023-02-13T08:17:57.260Z,101726.97
2023-02-13T08:19:59.472Z,101724.31
2023-02-13T08:22:01.717Z,101724.50
2023-02-13T08:24:04.923Z,101721.16
2023-02-13T08:26:07.045Z,101719.22
2023-02-13T08:28:09.013Z,101723.16
2023-02-13T08:30:12.243Z,101737.22
2023-02-13T08:32:15.163Z,101732.09
2023-02-13T08:34:17.301Z,101732.94
2023-02-13T08:36:20.060Z,101731.25
2023-02-13T08:38:22.083Z,101729.56
2023-02-13T08:40:26.033Z,101736.03
2023-02-13T08:42:28.155Z,101734.25
2023-02-13T08:44:30.401Z,101738.69
2023-02-13T08:46:32.638Z,101735.25
2023-02-13T08:48:35.170Z,101739.53
2023-02-13T08:50:37.468Z,101732.41
2023-02-13T08:52:39.488Z,101733.44
2023-02-13T08:54:41.555Z,101741.22
2023-02-13T08:56:43.798Z,101743.03
2023-02-13T08:58:49.546Z,101743.03
2023-02-13T09:00:52.092Z,101744.81
2023-02-13T09:02:56.894Z,101745.13
2023-02-13T09:05:00.506Z,101741.63
2023-02-13T09:07:02.660Z,101746.09
2023-02-13T09:09:05.811Z,101743.34
2023-02-13T09:11:08.014Z,101742.69
2023-02-13T09:13:10.699Z,101740.06
2023-02-13T09:15:12.924Z,101736.59
2023-02-13T09:17:18.654Z,101740.19
2023-02-13T09:19:21.052Z,101741.06
2023-02-13T09:21:24.263Z,101740.91
2023-02-13T09:23:26.625Z,101737.44
2023-02-13T09:25:28.659Z,101742.00
2023-02-13T09:27:30.977Z,101738.38
2023-02-13T09:29:34.162Z,101748.09
2023-02-13T09:31:38.865Z,101728.53
2023-02-13T09:33:41.383Z,101731.22
2023-02-13T09:35:46.196Z,101730.41
2023-02-13T09:37:51.013Z,101727.81
2023-02-13T09:39:53.590Z,101727.75
2023-02-13T09:41:57.496Z,101736.72
2023-02-13T09:44:34.190Z,101730.63
2023-02-13T09:46:39.170Z,101727.81
2023-02-13T09:48:45.645Z,101731.56
2023-02-13T09:50:47.844Z,101727.13
2023-02-13T09:52:53.308Z,101729.91
2023-02-13T09:54:58.485Z,101724.69
2023-02-13T09:57:19.680Z,101730.88
2023-02-13T09:59:36.911Z,101725.69
2023-02-13T10:01:44.525Z,101721.41
2023-02-13T10:04:05.072Z,101726.81
2023-02-13T10:06:21.921Z,101730.44
2023-02-13T10:08:36.430Z,101722.47
2023-02-13T10:11:07.506Z,101719.78
2023-02-13T10:13:26.497Z,101711.91
2023-02-13T10:15:51.547Z,101705.75
2023-02-13T10:18:35.154Z,101709.28
2023-02-13T10:20:42.458Z,101702.19
2023-02-13T10:23:08.429Z,101698.66
2023-02-13T10:25:23.079Z,101704.03
2023-02-13T10:27:43.532Z,101699.72
2023-02-13T10:30:15.242Z,101697.97
2023-02-13T10:32:22.575Z,101685.59
2023-02-13T10:34:31.584Z,101682.03
2023-02-13T10:36:40.884Z,101676.69
2023-02-13T10:39:05.376Z,101680.28
2023-02-13T10:41:45.062Z,101684.72
2023-02-13T10:44:13.672Z,101682.00
2023-02-13T10:46:34.270Z,101682.00
2023-02-13T10:49:00.204Z,101682.97
2023-02-13T10:51:06.312Z,101675.03
2023-02-13T10:53:25.216Z,101680.41
2023-02-13T10:55:59.485Z,101675.03
2023-02-13T10:58:05.021Z,101674.13
2023-02-13T11:00:46.246Z,101670.53
2023-02-13T11:02:48.790Z,101667.03
2023-02-13T11:04:57.973Z,101668.81
2023-02-13T11:07:01.894Z,101664.44
2023-02-13T11:09:09.868Z,101669.00
2023-02-13T11:11:31.714Z,101676.06
2023-02-13T11:13:33.621Z,101666.31
2023-02-13T11:15:37.407Z,101661.88
2023-02-13T11:17:44.226Z,101658.28
2023-02-13T11:19:56.039Z,101651.16
2023-02-13T11:22:12.276Z,101641.34
2023-02-13T11:24:24.736Z,101637.81
2023-02-13T11:26:29.547Z,101635.22
2023-02-13T11:28:35.223Z,101640.63
2023-02-13T11:30:39.642Z,101636.28
2023-02-13T11:32:41.948Z,101633.69
2023-02-13T11:34:46.769Z,101634.63
2023-02-13T11:36:52.992Z,101625.75
2023-02-13T11:39:00.670Z,101620.44
2023-02-13T11:41:12.386Z,101620.44
2023-02-13T11:43:39.241Z,101613.38
2023-02-13T11:45:41.422Z,101613.47
2023-02-13T11:47:43.846Z,101603.69
2023-02-13T11:49:47.819Z,101599.25
2023-02-13T11:51:55.968Z,101599.31
2023-02-13T11:54:01.277Z,101596.66
2023-02-13T11:56:09.275Z,101584.16
2023-02-13T11:58:11.545Z,101584.19
2023-02-13T12:00:37.521Z,101586.88
2023-02-13T12:02:50.194Z,101573.47
2023-02-13T12:05:17.017Z,101577.03
2023-02-13T12:07:21.700Z,101574.38
2023-02-13T12:09:23.797Z,101575.28
2023-02-13T12:11:33.808Z,101571.72
2023-02-13T12:13:39.135Z,101574.41
2023-02-13T12:15:43.438Z,101572.63
2023-02-13T12:17:50.157Z,101570.84
2023-02-13T12:19:52.566Z,101570.84
2023-02-13T12:21:57.548Z,101570.84
2023-02-13T12:24:30.378Z,101574.41
2023-02-13T12:26:43.050Z,101570.84
2023-02-13T12:28:45.083Z,101573.53
2023-02-13T12:31:09.907Z,101568.19
2023-02-13T12:33:54.306Z,101568.16
2023-02-13T12:36:21.234Z,101561.00
2023-02-13T12:38:35.198Z,101555.63
2023-02-13T12:40:43.332Z,101562.81
2023-02-13T12:43:27.102Z,101550.25
2023-02-13T12:45:38.642Z,101555.63
2023-02-13T12:47:49.158Z,101555.63
2023-02-13T12:50:18.001Z,101551.16
2023-02-13T12:52:29.240Z,101549.34
2023-02-13T12:55:05.202Z,101552.91
2023-02-13T12:57:07.485Z,101555.63
2023-02-13T12:59:11.007Z,101543.97
2023-02-13T13:01:34.297Z,101546.66
2023-02-13T13:03:52.522Z,101546.66
2023-02-13T13:06:31.976Z,101552.03
2023-02-13T13:08:48.931Z,101552.00
2023-02-13T13:11:12.747Z,101544.88
2023-02-13T13:13:20.642Z,101545.75
2023-02-13T13:15:48.138Z,101541.28
2023-02-13T13:18:40.989Z,101537.69
2023-02-13T13:20:58.834Z,101543.09
2023-02-13T13:23:42.332Z,101535.91
2023-02-13T13:25:52.169Z,101546.66
2023-02-13T13:28:02.437Z,101545.75
2023-02-13T13:30:14.227Z,101545.75
2023-02-13T13:32:21.654Z,101556.47
2023-02-13T13:34:26.804Z,101552.00
2023-02-13T13:36:50.044Z,101553.81
2023-02-13T13:39:05.351Z,101543.97
2023-02-13T13:41:23.681Z,101548.47
2023-02-13T13:44:22.666Z,101544.88
2023-02-13T13:46:32.864Z,101538.59
2023-02-13T13:48:35.005Z,101541.28
2023-02-13T13:50:42.118Z,101545.78
2023-02-13T13:53:12.225Z,101546.69
2023-02-13T13:56:09.611Z,101541.28
2023-02-13T13:58:40.888Z,101535.94
2023-02-13T14:00:43.133Z,101531.44
2023-02-13T14:02:51.491Z,101540.41
2023-02-13T14:05:20.842Z,101534.16
2023-02-13T14:07:24.712Z,101539.53
2023-02-13T14:09:27.282Z,101543.09
2023-02-13T14:11:39.277Z,101547.56
2023-02-13T14:13:41.694Z,101544.91
2023-02-13T14:15:45.112Z,101536.88
2023-02-13T14:17:49.743Z,101539.53
2023-02-13T14:19:53.396Z,101533.28
2023-02-13T14:22:15.893Z,101530.59
2023-02-13T14:24:20.751Z,101529.72
2023-02-13T14:26:32.410Z,101529.72
2023-02-13T14:28:34.521Z,101530.63
2023-02-13T14:30:40.606Z,101531.53
2023-02-13T14:32:47.204Z,101537.78
2023-02-13T14:35:18.790Z,101530.63
2023-02-13T14:37:30.472Z,101536.00
2023-02-13T14:39:38.067Z,101532.44
2023-02-13T14:41:54.214Z,101536.00
2023-02-13T14:43:57.115Z,101529.72
2023-02-13T14:46:08.445Z,101529.75
2023-02-13T14:48:14.925Z,101533.31
2023-02-13T14:50:23.963Z,101527.94
2023-02-13T14:52:32.955Z,101511.84
2023-02-13T14:55:12.970Z,101509.16
2023-02-13T14:57:32.065Z,101509.16
2023-02-13T14:59:39.058Z,101508.28
2023-02-13T15:01:58.119Z,101511.84
2023-02-13T15:04:07.814Z,101507.38
2023-02-13T15:06:30.159Z,101505.59
2023-02-13T15:08:41.290Z,101502.91
2023-02-13T15:10:47.327Z,101507.34
2023-02-13T15:12:58.449Z,101510.06
2023-02-13T15:15:01.939Z,101512.75
2023-02-13T15:17:20.550Z,101507.38
2023-02-13T15:19:24.768Z,101509.16
2023-02-13T15:21:34.388Z,101507.34
2023-02-13T15:23:36.745Z,101498.41
2023-02-13T15:25:40.556Z,101510.91
2023-02-13T15:27:44.129Z,101508.22
2023-02-13T15:30:05.113Z,101509.09
2023-02-13T15:32:28.898Z,101508.19
2023-02-13T15:34:35.869Z,101502.84
2023-02-13T15:36:42.223Z,101511.75
2023-02-13T15:38:47.620Z,101504.59
2023-02-13T15:40:52.263Z,101504.59
2023-02-13T15:42:55.569Z,101506.38
2023-02-13T15:44:58.956Z,101504.59
2023-02-13T15:47:09.628Z,101500.97
2023-02-13T15:49:18.939Z,101503.66
2023-02-13T15:51:23.694Z,101498.31
2023-02-13T15:53:26.044Z,101505.44
2023-02-13T15:55:33.998Z,101510.78
2023-02-13T15:57:36.457Z,101511.66
2023-02-13T15:59:39.887Z,101499.13
2023-02-13T16:01:46.534Z,101501.78
2023-02-13T16:04:00.277Z,101506.22
2023-02-13T16:06:04.835Z,101510.72
2023-02-13T16:08:25.226Z,101507.97
2023-02-13T16:10:36.401Z,101514.16
2023-02-13T16:12:47.027Z,101509.66
2023-02-13T16:14:54.437Z,101507.00
2023-02-13T16:17:07.176Z,101513.19
2023-02-13T16:19:32.801Z,101517.59
2023-02-13T16:21:36.097Z,101510.44
2023-02-13T16:23:38.824Z,101522.81
2023-02-13T16:25:41.757Z,101519.28
2023-02-13T16:27:52.780Z,101524.59
2023-02-13T16:30:03.372Z,101532.63
2023-02-13T16:32:14.589Z,101519.22
2023-02-13T16:34:22.387Z,101528.16
2023-02-13T16:36:30.065Z,101514.69
2023-02-13T16:38:36.102Z,101516.44
2023-02-13T16:40:41.664Z,101512.88
2023-02-13T16:42:43.750Z,101513.72
2023-02-13T16:44:45.882Z,101515.50
2023-02-13T16:46:58.339Z,101518.09
2023-02-13T16:49:09.590Z,101516.28
2023-02-13T16:51:12.624Z,101520.78
2023-02-13T16:53:16.454Z,101517.13
2023-02-13T16:55:18.847Z,101517.09
2023-02-13T16:57:33.929Z,101512.56
2023-02-13T16:59:48.606Z,101505.38
2023-02-13T17:02:14.678Z,101508.03
2023-02-13T17:04:22.176Z,101516.03
2023-02-13T17:06:25.395Z,101522.22
2023-02-13T17:08:28.052Z,101516.88
2023-02-13T17:10:34.170Z,101511.47
2023-02-13T17:12:38.862Z,101509.66
2023-02-13T17:14:41.174Z,101512.31
2023-02-13T17:16:43.183Z,101504.28
2023-02-13T17:18:45.214Z,101509.63
2023-02-13T17:20:47.834Z,101509.53
2023-02-13T17:22:52.677Z,101508.59
2023-02-13T17:24:54.969Z,101513.91
2023-02-13T17:26:57.150Z,101513.84
2023-02-13T17:28:59.618Z,101513.81
2023-02-13T17:31:02.228Z,101508.25
2023-02-13T17:33:08.254Z,101507.34
2023-02-13T17:35:11.924Z,101508.22
2023-02-13T17:37:18.657Z,101508.22
2023-02-13T17:39:20.766Z,101504.59
2023-02-13T17:41:24.148Z,101497.53
2023-02-13T17:43:28.176Z,101497.44
2023-02-13T17:45:33.775Z,101497.38
2023-02-13T17:47:35.957Z,101493.78
2023-02-13T17:49:38.398Z,101489.31
2023-02-13T17:51:41.621Z,101497.13
2023-02-13T17:53:43.649Z,101497.22
2023-02-13T17:55:45.858Z,101489.25
2023-02-13T17:57:52.704Z,101494.47
2023-02-13T17:59:59.315Z,101485.56
2023-02-13T18:02:01.500Z,101486.44
2023-02-13T18:04:03.691Z,101482.94
2023-02-13T18:06:06.174Z,101480.25
2023-02-13T18:08:08.753Z,101487.31
2023-02-13T18:10:18.768Z,101477.50
2023-02-13T18:12:24.317Z,101483.72
2023-02-13T18:14:29.985Z,101483.75
2023-02-13T18:16:32.278Z,101473.16
2023-02-13T18:18:34.314Z,101470.50
2023-02-13T18:20:36.443Z,101473.13
2023-02-13T18:22:41.670Z,101466.00
2023-02-13T18:24:43.942Z,101458.97
2023-02-13T18:26:46.044Z,101456.31
2023-02-13T18:28:52.501Z,101450.97
2023-02-13T18:30:54.499Z,101451.88
2023-02-13T18:32:59.114Z,101451.88
2023-02-13T18:35:01.349Z,101451.88
2023-02-13T18:37:04.557Z,101443.88
2023-02-13T18:39:08.421Z,101450.06
2023-02-13T18:41:12.205Z,101449.22
2023-02-13T18:43:14.180Z,101448.31
2023-02-13T18:45:16.314Z,101441.22
2023-02-13T18:47:18.875Z,101435.00
2023-02-13T18:49:21.065Z,101422.53
2023-02-13T18:51:25.187Z,101431.41
2023-02-13T18:53:27.640Z,101425.13
2023-02-13T18:55:29.659Z,101432.25
2023-02-13T18:57:31.914Z,101434.84
2023-02-13T18:59:33.974Z,101436.72
2023-02-13T19:01:36.896Z,101433.16
2023-02-13T19:03:39.693Z,101424.25
2023-02-13T19:05:41.802Z,101423.34
2023-02-13T19:07:44.149Z,101433.97
2023-02-13T19:09:46.266Z,101419.72
2023-02-13T19:11:48.928Z,101416.19
2023-02-13T19:13:56.679Z,101418.81
2023-02-13T19:16:10.838Z,101410.66
2023-02-13T19:18:12.849Z,101410.69
2023-02-13T19:20:16.751Z,101404.38
2023-02-13T19:22:19.320Z,101400.88
2023-02-13T19:24:21.343Z,101396.50
2023-02-13T19:26:26.250Z,101401.75
2023-02-13T19:28:28.308Z,101399.94
2023-02-13T19:30:30.524Z,101395.56
2023-02-13T19:32:32.705Z,101383.13
2023-02-13T19:34:35.073Z,101380.50
2023-02-13T19:36:37.030Z,101376.94
2023-02-13T19:38:42.060Z,101368.00
2023-02-13T19:40:44.148Z,101363.53
2023-02-13T19:42:46.186Z,101369.66
2023-02-13T19:44:48.126Z,101374.09
2023-02-13T19:46:50.357Z,101372.34
2023-02-13T19:48:52.854Z,101369.59
2023-02-13T19:50:54.915Z,101382.00
2023-02-13T19:52:56.855Z,101386.41
2023-02-13T19:54:59.261Z,101383.69
2023-02-13T19:57:07.298Z,101380.06
2023-02-13T19:59:13.592Z,101389.75
2023-02-13T20:01:18.394Z,101396.84
2023-02-13T20:03:20.939Z,101393.25
2023-02-13T20:05:22.832Z,101393.28
2023-02-13T20:07:24.889Z,101395.84
2023-02-13T20:09:26.872Z,101393.31
2023-02-13T20:11:29.585Z,101402.25
2023-02-13T20:13:32.100Z,101399.56
2023-02-13T20:15:37.082Z,101385.34
2023-02-13T20:17:39.598Z,101380.06
2023-02-13T20:19:41.866Z,101381.66
2023-02-13T20:21:45.464Z,101392.28
2023-02-13T20:23:51.838Z,101375.34
2023-02-13T20:25:56.201Z,101379.00
2023-02-13T20:27:59.823Z,101370.19
2023-02-13T20:30:06.860Z,101366.69
2023-02-13T20:32:10.461Z,101368.44
2023-02-13T20:34:12.868Z,101373.75
2023-02-13T20:36:20.777Z,101372.88
2023-02-13T20:38:22.903Z,101375.50
2023-02-13T20:40:25.974Z,101372.03
2023-02-13T20:42:28.359Z,101366.75
2023-02-13T20:44:30.633Z,101376.59
2023-02-13T20:46:34.482Z,101372.06
2023-02-13T20:48:37.659Z,101382.69
2023-02-13T20:50:40.148Z,101385.34
2023-02-13T20:52:42.375Z,101392.31
2023-02-13T20:54:44.422Z,101399.44
2023-02-13T20:56:47.658Z,101391.31
2023-02-13T20:58:51.566Z,101401.13
2023-02-13T21:00:53.645Z,101408.16
2023-02-13T21:02:55.824Z,101403.66
2023-02-13T21:04:57.966Z,101404.47
2023-02-13T21:07:00.338Z,101409.75
2023-02-13T21:09:04.296Z,101413.91
2023-02-13T21:11:07.942Z,101414.75
2023-02-13T21:13:10.696Z,101411.09
2023-02-13T21:15:12.717Z,101413.91
2023-02-13T21:17:14.821Z,101408.56
2023-02-13T21:19:21.359Z,101412.25
2023-02-13T21:21:28.056Z,101419.31
2023-02-13T21:23:31.025Z,101427.38
2023-02-13T21:25:33.628Z,101424.69
2023-02-13T21:27:35.634Z,101417.59
2023-02-13T21:29:38.389Z,101416.81
2023-02-13T21:31:47.957Z,101413.34
2023-02-13T21:33:50.669Z,101403.59
2023-02-13T21:36:01.131Z,101401.72
2023-02-13T21:38:03.401Z,101407.84
2023-02-13T21:40:06.205Z,101408.81
2023-02-13T21:42:08.586Z,101398.28
2023-02-13T21:44:16.126Z,101400.81
2023-02-13T21:46:18.100Z,101389.22
2023-02-13T21:48:20.534Z,101399.13
2023-02-13T21:50:23.226Z,101393.81
2023-02-13T21:52:25.228Z,101394.75
2023-02-13T21:54:27.323Z,101405.38
2023-02-13T21:56:32.226Z,101402.69
2023-02-13T21:58:36.523Z,101413.13
2023-02-13T22:00:38.494Z,101392.81
2023-02-13T22:02:41.141Z,101392.78
2023-02-13T22:04:43.325Z,101382.97
2023-02-13T22:06:49.326Z,101384.81
2023-02-13T22:08:57.115Z,101374.09
2023-02-13T22:11:02.966Z,101370.47
2023-02-13T22:13:05.264Z,101374.94
2023-02-13T22:15:07.868Z,101391.75
2023-02-13T22:17:10.261Z,101382.00
2023-02-13T22:19:16.587Z,101357.03
2023-02-13T22:21:23.126Z,101355.28
2023-02-13T22:23:28.191Z,101349.06
2023-02-13T22:25:30.568Z,101356.25
2023-02-13T22:27:32.695Z,101360.56
2023-02-13T22:29:35.015Z,101360.63
2023-02-13T22:31:37.813Z,101344.59
2023-02-13T22:33:40.923Z,101349.13
2023-02-13T22:35:43.164Z,101343.75
2023-02-13T22:37:45.034Z,101347.31
2023-02-13T22:39:47.182Z,101344.75
2023-02-13T22:41:49.227Z,101344.72
2023-02-13T22:43:52.239Z,101344.78
2023-02-13T22:45:54.316Z,101340.34
2023-02-13T22:47:56.544Z,101344.88
2023-02-13T22:49:58.750Z,101347.53
2023-02-13T22:52:01.405Z,101337.75
2023-02-13T22:54:04.204Z,101339.47
2023-02-13T22:56:09.054Z,101326.13
2023-02-13T22:58:11.734Z,101326.16
2023-02-13T23:00:15.054Z,101322.53
2023-02-13T23:02:17.098Z,101319.84
2023-02-13T23:04:19.357Z,101318.06
2023-02-13T23:06:22.127Z,101314.47
2023-02-13T23:08:24.232Z,101311.78
2023-02-13T23:10:26.962Z,101304.66
2023-02-13T23:12:40.346Z,101312.81
2023-02-13T23:14:42.357Z,101300.38
2023-02-13T23:17:03.553Z,101319.06
2023-02-13T23:19:05.840Z,101324.31
2023-02-13T23:21:11.458Z,101321.56
2023-02-13T23:23:13.588Z,101316.28
2023-02-13T23:25:16.895Z,101321.69
2023-02-13T23:27:19.038Z,101325.19
2023-02-13T23:29:21.504Z,101323.31
2023-02-13T23:31:23.607Z,101330.25
2023-02-13T23:33:25.747Z,101334.66
2023-02-13T23:35:27.820Z,101330.25
2023-02-13T23:37:30.753Z,101333.84
2023-02-13T23:39:32.890Z,101331.94
2023-02-13T23:41:35.033Z,101330.28
2023-02-13T23:43:37.100Z,101317.91
2023-02-13T23:45:39.378Z,101319.69
2023-02-13T23:47:41.673Z,101328.47
2023-02-13T23:49:43.606Z,101324.00
2023-02-13T23:51:45.702Z,101315.09
2023-02-13T23:53:47.983Z,101308.91
2023-02-13T23:55:50.867Z,101317.81
2023-02-13T23:57:52.995Z,101304.47
2023-02-13T23:59:55.040Z,101325.84
